Friday, August 17, 2018, 10:54 PM EDT
Back to Local

KGTB, Fort Drum / Wheeler-sack U. S. Army Airfield

Location: Fort Drum, NY, United States Lat: 44.05
Local Time: 10:54 PM EDT ( 2:54 GMT) Lon: -75.733
Time Zone: US/Eastern Elev: 679 ft

Show me the last for .
Show Decoded

2018-08-17 22:41 METAR KGTB 180241Z 36006KT 10SM FEW029 BKN037 19/19 A2988 RMK AO2A DZE0157
                 TSB26E41 SLP116 TSNO $ =
2018-08-17 22:37 METAR KGTB 180237Z 36006KT 10SM TS SCT029 BKN037 19/19 A2988 RMK AO2A DZE0157
                 TSB26 SLP116 TSNO $ =
2018-08-17 22:26 METAR KGTB 180226Z 02008KT 10SM TS FEW008 BKN029 BKN034 19/19 A2987 RMK AO2A
                 TSB26 SLP113 TSNO $ =
2018-08-17 22:17 METAR KGTB 180217Z 01008KT 10SM FEW008 BKN027 20/20 A2987 RMK AO2A DZE0157 CIG
                 010V027 CIG 006 RWY03 SLP113 TSNO $ =
2018-08-17 22:07 METAR KGTB 180207Z 01007KT 10SM SCT006 BKN010 20/20 A2987 RMK AO2A DZE0157 CIG
                 005V010 CIG 004 RWY03 SLP113 TSNO $ =
2018-08-17 21:56 METAR KGTB 180156Z 36008KT 10SM -DZ SCT003 BKN010 20/20 A2987 RMK AO2A
                 RAE52DZB52 TSE41 CIG 002V010 CIG 003 RWY03 SLP113 P0039 T02020202 TSNO $ =
2018-08-17 21:41 METAR KGTB 180141Z 01009KT 7SM RA BR SCT002 BKN010 OVC014 21/21 A2987 RMK AO2A
                 TSE41 SLP113 TSNO $ =
2018-08-17 21:26 METAR KGTB 180126Z 33004KT 3SM +TSRA BR SCT002 OVC012 22/22 A2987 RMK AO2A
                 SLP112 TSNO $ =
2018-08-17 21:21 METAR KGTB 180121Z 36005KT 1 7/8SM +TSRA BR SCT002 OVC010 22/22 A2986 RMK AO2A
                 VIS 1 7/8V2 1/2 SLP109 TSNO $ =
2018-08-17 21:11 METAR KGTB 180111Z 29006KT 2 1/4SM +TSRA BR SCT002 OVC013 22/22 A2986 RMK AO2A
                 TSE11 CIG 002V014 BKN V SCT SLP109 TSNO $ =
2018-08-17 21:06 METAR KGTB 180106Z 33004KT 2 1/2SM +TSRA BR SCT002 OVC013 23/23 A2986 RMK AO2A
                 VIS 1 3/4V2 1/2 VIS 1 5/8 RWY03 CIG 002V014 BKN V SCT SLP109 TSNO $ =
2018-08-17 20:56 METAR KGTB 180056Z 26004KT 3SM +TSRA BR FEW002 BKN014 OVC023 23/23 A2986 RMK
                 AO2A RAE20DZB20E22RAB22 TSB56 CIG 013 RWY03 SLP108 P0015 T02260226 TSNO $ =
2018-08-17 20:50 METAR KGTB 180050Z AUTO 27004KT 5SM -RA BR FEW002 BKN014 OVC023 23/23 A2986 RMK
                 AO2 RAE20DZB20E22RAB22 CIG 013 RWY03 SLP108 TSNO $ =
2018-08-17 20:46 METAR KGTB 180046Z AUTO 25003KT 6SM RA BR BKN014 BKN023 23/23 A2986 RMK AO2
                 RAE20DZB20E22RAB22 CIG 014V019 SLP108 TSNO $ =
2018-08-17 20:36 METAR KGTB 180036Z AUTO 25003KT 6SM RA BR SCT009 BKN016 OVC022 23/23 A2986 RMK
                 AO2 RAE20DZB20E22RAB22 CIG 009V018 SLP108 TSNO $ =
2018-08-17 20:26 METAR KGTB 180026Z AUTO 00000KT 7SM RA FEW002 BKN009 OVC019 23/23 A2986 RMK AO2
                 RAE20DZB20E22RAB22 CIG 009V019 SLP108 TSNO $ =
2018-08-17 19:56 METAR KGTB 172356Z AUTO 25005KT 4SM -RA BR FEW002 BKN016 BKN023 BKN030 23/23
                 A2986 RMK AO2 VIS 2 1/4 RWY03 VIS 2 1/4 RWY33 DZB37E39RAB39 CIG 015V030 SLP109
                 P0011 60027 T02300230 10256 20228 58000 TSNO $ =
2018-08-17 19:48 METAR KGTB 172348Z AUTO 25006KT 2 1/2SM +RA BR FEW002 SCT013 BKN030 24/24 A2986
                 RMK AO2 VIS 2 1/2V10 VIS 1 7/8 RWY03 DZB37E39RAB39 SLP108 TSNO $ =
2018-08-17 19:37 METAR KGTB 172337Z AUTO 26004KT 10SM +DZ SCT031 SCT050 24/24 A2986 RMK AO2 DZB37
                 SLP109 TSNO $ =
2018-08-17 18:56 METAR KGTB 172256Z AUTO 25004KT 10SM FEW026 SCT060 24/24 A2986 RMK AO2 SLP109
                 T02430243 TSNO $ =
2018-08-17 18:06 METAR KGTB 172206Z AUTO 27005KT 10SM FEW019 SCT024 25/25 A2986 RMK AO2 SLP108
                 TSNO $ =
2018-08-17 17:56 METAR KGTB 172156Z AUTO 26006KT 10SM SCT019 BKN024 25/25 A2987 RMK AO2 CIG 021
                 RWY03 SLP112 T02520252 TSNO $ =
2018-08-17 16:56 METAR KGTB 172056Z AUTO 24004KT 10SM FEW013 FEW028 26/26 A2986 RMK AO2 SLP108
                 60016 T02550255 58015 TSNO $ =
2018-08-17 16:46 METAR KGTB 172046Z AUTO 24006KT 10SM FEW013 SCT028 26/26 A2986 RMK AO2 SLP108
                 TSNO $ =
2018-08-17 15:56 METAR KGTB 171956Z AUTO 20005KT 10SM BKN023 24/24 A2988 RMK AO2
                 DZE1856RAB1856E30 SLP115 P0016 T02420242 TSNO $ =
2018-08-17 15:30 METAR KGTB 171930Z AUTO 22005KT 9SM FEW001 BKN020 OVC029 23/23 A2989 RMK AO2
                 DZE1856RAB1856E30 BKN V OVC SLP119 TSNO $ =
2018-08-17 15:24 METAR KGTB 171924Z AUTO 22004KT 6SM -RA BR FEW001 BKN020 OVC029 23/23 A2989 RMK
                 AO2 DZE1856RAB1856 BKN V OVC SLP119 TSNO $ =
2018-08-17 15:14 METAR KGTB 171914Z AUTO 26004KT 1 5/8SM +RA BR FEW001 OVC017 23/23 A2990 RMK AO2
                 VIS 1 1/8V2 DZE1856RAB1856 SLP122 TSNO $ =
2018-08-17 15:09 METAR KGTB 171909Z AUTO 25004KT 1 1/8SM R21/5500FT +RA BR FEW001 OVC019 23/23
                 A2990 RMK AO2 VIS 1 1/8V7 DZE1856RAB1856 SLP122 TSNO $ =
2018-08-17 15:04 METAR KGTB 171904Z AUTO 26003KT 3SM +RA BR FEW001 OVC019 24/24 A2990 RMK AO2
                 DZE1856RAB1856 CIG 018 RWY03 SLP122 TSNO $ =
2018-08-17 14:56 METAR KGTB 171856Z AUTO 24005KT 10SM -DZ OVC021 24/24 A2990 RMK AO2 DZB25 CIG
                 020 RWY03 SLP122 T02390239 TSNO $ =
2018-08-17 14:25 METAR KGTB 171825Z COR 22007KT 10SM -DZ BKN023 OVC029 25/23 A2990 RMK AO2 DZB25
                 SLP122 TSNO $ COR 1840 =
2018-08-17 14:21 METAR KGTB 171821Z AUTO 23010KT 10SM M 25/23 A2990 RMK AO2 SLP122 TSNO $ =
2018-08-17 13:56 METAR KGTB 171756Z AUTO 23010KT 10SM BKN021 25/23 A2990 RMK AO2 SLP122 60003
                 T02500228 10254 20213 57019 TSNO $ =
2018-08-17 12:56 METAR KGTB 171656Z AUTO 20012KT 10SM BKN025 OVC031 25/23 A2992 RMK AO2 BKN V OVC
                 CIG 023 RWY03 SLP129 T02490227 TSNO $ =
2018-08-17 11:56 METAR KGTB 171556Z AUTO 19013KT 10SM OVC025 23/23 A2994 RMK AO2 CIG 024 RWY03
                 SLP136 T02270227 TSNO $ =
2018-08-17 10:56 METAR KGTB 171456Z AUTO 18010KT 10SM OVC023 22/22 A2996 RMK AO2 DZE03RAB03E26
                 SLP143 60003 T02170217 57015 TSNO $ =
2018-08-17 10:26 METAR KGTB 171426Z AUTO 17010KT 10SM OVC022 21/21 A2997 RMK AO2 DZE03RAB03E26
                 SLP146 TSNO $ =
2018-08-17 09:56 METAR KGTB 171356Z AUTO 18011G18KT 10SM -DZ BKN020 OVC030 22/22 A2997 RMK AO2
                 RAE37DZB37E38DZB52 CIG 020V029 BKN V SCT SLP146 P0001 T02160216 TSNO $ =
2018-08-17 09:52 METAR KGTB 171352Z AUTO 17011G18KT 10SM -DZ BKN020 BKN030 22/22 A2997 RMK AO2
                 RAE37DZB37E38DZB52 CIG 020V029 BKN020 V SCT SLP146 TSNO $ =
2018-08-17 09:48 METAR KGTB 171348Z AUTO 17009KT 10SM SCT020 BKN029 22/22 A2997 RMK AO2
                 RAE37DZB37E38 CIG 018 RWY03 SLP146 TSNO $ =
2018-08-17 09:38 METAR KGTB 171338Z AUTO 17009KT 10SM SCT031 BKN040 22/22 A2998 RMK AO2
                 RAE37DZB37E38 SLP149 TSNO $ =
2018-08-17 09:18 METAR KGTB 171318Z AUTO 18010KT 10SM -RA SCT008 BKN039 22/22 A2999 RMK AO2
                 SLP153 TSNO $ =
2018-08-17 08:56 METAR KGTB 171256Z AUTO 19011KT 10SM -RA SCT012 22/22 A2999 RMK AO2
                 DZB19E27RAB37 SLP153 P0001 T02200220 TSNO $ =
2018-08-17 08:48 METAR KGTB 171248Z 20009KT 10SM -RA FEW011 23/23 A2999 RMK AO2A DZB19E27RAB37
                 SLP153 TSNO $ =
2018-08-17 07:56 METAR KGTB 171156Z AUTO 15005KT 10SM CLR 21/21 A3001 RMK AO2 DZB1056E04 SLP159
                 P0001 60001 70001 T02120212 10214 20208 53001 TSNO $ =
2018-08-17 06:56 METAR KGTB 171056Z AUTO 14008KT 10SM CLR 21/21 A3000 RMK AO2 RAB17E54DZB54
                 SLP156 P0001 T02090209 TSNO $ =
2018-08-17 05:56 METAR KGTB 170956Z AUTO 14008KT 10SM CLR 21/21 A3000 RMK AO2 SLP156 T02080208
                 TSNO $ =
2018-08-17 04:56 METAR KGTB 170856Z AUTO 14010KT 10SM FEW120 21/21 A3000 RMK AO2
                 RAB09E18DZB18E22RAB22E31 SLP156 P0000 60000 T02100210 57011 TSNO $ =
2018-08-17 04:26 METAR KGTB 170826Z AUTO 14008KT 10SM CLR 21/21 A3001 RMK AO2
                 RAB09E18DZB18E22RAB22 SLP159 TSNO $ =
2018-08-17 04:09 METAR KGTB 170809Z AUTO 15007KT 10SM -RA SCT120 21/21 A3002 RMK AO2 RAB09 SLP162
                 TSNO $ =
2018-08-17 03:56 METAR KGTB 170756Z AUTO 14008KT 10SM SCT120 21/21 A3002 RMK AO2 SLP162 T02120212
                 TSNO $ =
2018-08-17 02:56 METAR KGTB 170656Z AUTO 14006KT 10SM CLR 21/21 A3002 RMK AO2 SLP162 T02100210
                 TSNO $ =
2018-08-17 01:56 METAR KGTB 170556Z AUTO 14009KT 10SM FEW150 21/21 A3003 RMK AO2 SLPNO T02130213
                 10239 20213 58003 TSNO $ =
2018-08-17 00:56 METAR KGTB 170456Z AUTO 14004KT 10SM SCT090 22/22 A3004 RMK AO2 SLPNO T02160216
                 402720192 TSNO $ =
2018-08-16 23:56 METAR KGTB 170356Z AUTO 14007KT 10SM FEW045 22/22 A3004 RMK AO2 SLP170 T02210221
                 TSNO $ =
2018-08-16 22:56 METAR KGTB 170256Z AUTO 13006KT 10SM CLR 22/22 A3004 RMK AO2 SLP170 T02240224
                 58001 TSNO $ =

Support USWX by starting your Amazon purchase here.